createdAt,value
2023-06-15T00:00:06.459Z,0.00
2023-06-15T00:01:06.453Z,0.00
2023-06-15T00:02:06.449Z,0.00
2023-06-15T00:03:06.530Z,0.00
2023-06-15T00:04:06.536Z,0.00
2023-06-15T00:05:06.399Z,0.00
2023-06-15T00:06:06.376Z,0.00
2023-06-15T00:07:06.385Z,0.00
2023-06-15T00:08:06.350Z,0.00
2023-06-15T00:09:06.354Z,0.00
2023-06-15T00:10:06.329Z,0.00
2023-06-15T00:11:06.319Z,0.00
2023-06-15T00:12:06.303Z,0.00
2023-06-15T00:13:06.295Z,0.00
2023-06-15T00:14:06.298Z,0.00
2023-06-15T00:15:06.292Z,0.00
2023-06-15T00:16:06.286Z,0.00
2023-06-15T00:17:06.247Z,0.00
2023-06-15T00:18:06.286Z,0.00
2023-06-15T00:19:06.239Z,0.00
2023-06-15T00:20:06.224Z,0.00
2023-06-15T00:21:06.214Z,0.00
2023-06-15T00:22:06.197Z,0.00
2023-06-15T00:23:06.202Z,0.00
2023-06-15T00:24:06.185Z,0.00
2023-06-15T00:25:06.215Z,0.00
2023-06-15T00:26:06.162Z,0.00
2023-06-15T00:27:06.130Z,0.00
2023-06-15T00:28:06.126Z,0.00
2023-06-15T00:29:06.135Z,0.00
2023-06-15T00:30:06.124Z,0.00
2023-06-15T00:31:06.089Z,0.00
2023-06-15T00:32:06.202Z,0.00
2023-06-15T00:33:06.233Z,0.00
2023-06-15T00:34:06.063Z,0.00
2023-06-15T00:35:06.051Z,0.00
2023-06-15T00:36:06.030Z,0.00
2023-06-15T00:37:06.014Z,0.00
2023-06-15T00:38:06.051Z,0.00
2023-06-15T00:39:06.015Z,0.00
2023-06-15T00:40:05.996Z,0.00
2023-06-15T00:41:05.967Z,0.00
2023-06-15T00:42:05.967Z,0.00
2023-06-15T00:43:05.943Z,0.00
2023-06-15T00:44:05.955Z,0.00
2023-06-15T00:45:05.943Z,0.00
2023-06-15T00:46:05.921Z,0.00
2023-06-15T00:47:05.948Z,0.00
2023-06-15T00:48:05.958Z,0.00
2023-06-15T00:49:05.881Z,0.00
2023-06-15T00:50:05.917Z,0.00
2023-06-15T00:51:05.871Z,0.00
2023-06-15T00:52:05.843Z,0.00
2023-06-15T00:53:05.836Z,0.00
2023-06-15T00:54:05.826Z,0.00
2023-06-15T00:55:05.893Z,0.00
2023-06-15T00:56:05.801Z,0.00
2023-06-15T00:57:05.803Z,0.00
2023-06-15T00:58:05.777Z,0.00
2023-06-15T00:59:05.761Z,0.00
2023-06-15T01:00:05.772Z,0.00
2023-06-15T01:01:05.757Z,0.00
2023-06-15T01:02:05.748Z,0.00
2023-06-15T01:03:05.942Z,0.00
2023-06-15T01:04:05.756Z,0.00
2023-06-15T01:05:05.712Z,0.00
2023-06-15T01:06:05.689Z,0.00
2023-06-15T01:07:05.721Z,0.00
2023-06-15T01:08:05.691Z,0.00
2023-06-15T01:09:05.664Z,0.00
2023-06-15T01:10:05.668Z,0.00
2023-06-15T01:11:05.655Z,0.00
2023-06-15T01:12:05.626Z,0.00
2023-06-15T01:13:05.608Z,0.00
2023-06-15T01:14:05.622Z,0.00
2023-06-15T01:15:05.604Z,0.00
2023-06-15T01:16:05.593Z,0.00
2023-06-15T01:17:05.584Z,0.00
2023-06-15T01:18:05.582Z,0.00
2023-06-15T01:19:05.551Z,0.00
2023-06-15T01:20:05.564Z,0.00
2023-06-15T01:21:05.556Z,0.00
2023-06-15T01:22:05.513Z,0.00
2023-06-15T01:23:05.504Z,0.00
2023-06-15T01:24:05.550Z,0.00
2023-06-15T01:25:05.582Z,0.00
2023-06-15T01:26:05.472Z,0.00
2023-06-15T01:27:05.484Z,0.00
2023-06-15T01:28:05.453Z,0.00
2023-06-15T01:29:05.471Z,0.00
2023-06-15T01:30:05.495Z,0.00
2023-06-15T01:31:05.459Z,0.00
2023-06-15T01:32:05.431Z,0.00
2023-06-15T01:33:05.410Z,0.00
2023-06-15T01:34:05.377Z,0.00
2023-06-15T01:35:05.396Z,0.00
2023-06-15T01:36:05.360Z,0.00
2023-06-15T01:37:05.358Z,0.00
2023-06-15T01:38:05.371Z,0.00
2023-06-15T01:39:05.343Z,0.00
2023-06-15T01:40:05.313Z,0.00
2023-06-15T01:41:05.311Z,0.00
2023-06-15T01:42:05.297Z,0.00
2023-06-15T01:43:05.317Z,0.00
2023-06-15T01:44:05.295Z,0.00
2023-06-15T01:45:05.264Z,0.00
2023-06-15T01:46:05.281Z,0.00
2023-06-15T01:47:05.277Z,0.00
2023-06-15T01:48:05.303Z,0.00
2023-06-15T01:49:05.245Z,0.00
2023-06-15T01:50:05.235Z,0.00
2023-06-15T01:51:05.224Z,0.00
2023-06-15T01:52:05.184Z,0.00
2023-06-15T01:53:05.188Z,0.00
2023-06-15T01:54:05.165Z,0.00
2023-06-15T01:55:05.680Z,0.00
2023-06-15T01:56:05.171Z,0.00
2023-06-15T01:57:05.132Z,0.00
2023-06-15T01:58:05.125Z,0.00
2023-06-15T01:59:05.132Z,0.00
2023-06-15T02:00:05.101Z,0.00
2023-06-15T02:01:05.129Z,0.00
2023-06-15T02:02:05.169Z,0.00
2023-06-15T02:03:05.110Z,0.00
2023-06-15T02:04:05.051Z,0.00
2023-06-15T02:05:05.046Z,0.00
2023-06-15T02:06:05.036Z,0.00
2023-06-15T02:07:05.026Z,0.00
2023-06-15T02:08:05.039Z,0.00
2023-06-15T02:09:05.015Z,0.00
2023-06-15T02:10:04.986Z,0.00
2023-06-15T02:11:04.977Z,0.00
2023-06-15T02:12:04.962Z,0.00
2023-06-15T02:13:04.964Z,0.00
2023-06-15T02:14:04.961Z,0.00
2023-06-15T02:15:04.964Z,0.00
2023-06-15T02:16:04.939Z,0.00
2023-06-15T02:17:04.929Z,0.00
2023-06-15T02:18:04.926Z,0.00
2023-06-15T02:19:04.909Z,0.00
2023-06-15T02:20:04.899Z,0.00
2023-06-15T02:21:04.861Z,0.00
2023-06-15T02:22:04.856Z,0.00
2023-06-15T02:23:04.842Z,0.00
2023-06-15T02:24:04.866Z,0.00
2023-06-15T02:25:04.847Z,0.00
2023-06-15T02:26:04.819Z,0.00
2023-06-15T02:27:04.795Z,0.00
2023-06-15T02:28:04.784Z,0.00
2023-06-15T02:29:04.773Z,0.00
2023-06-15T02:30:04.773Z,0.00
2023-06-15T02:31:04.808Z,0.00
2023-06-15T02:32:04.742Z,0.00
2023-06-15T02:33:04.781Z,0.00
2023-06-15T02:34:04.757Z,0.00
2023-06-15T02:35:04.712Z,0.00
2023-06-15T02:36:04.726Z,0.00
2023-06-15T02:37:04.693Z,0.00
2023-06-15T02:38:04.666Z,0.00
2023-06-15T02:39:04.660Z,0.00
2023-06-15T02:40:04.653Z,0.00
2023-06-15T02:41:04.640Z,0.00
2023-06-15T02:42:04.642Z,0.00
2023-06-15T02:43:04.644Z,0.00
2023-06-15T02:44:04.603Z,0.00
2023-06-15T02:45:04.751Z,0.00
2023-06-15T02:46:04.578Z,0.00
2023-06-15T02:47:04.591Z,0.00
2023-06-15T02:48:04.609Z,0.00
2023-06-15T02:49:04.562Z,0.00
2023-06-15T02:50:04.570Z,0.00
2023-06-15T02:51:04.527Z,0.00
2023-06-15T02:52:04.515Z,0.00
2023-06-15T02:53:04.530Z,0.00
2023-06-15T02:54:04.488Z,0.00
2023-06-15T02:55:04.481Z,0.00
2023-06-15T02:56:07.802Z,0.00
2023-06-15T02:57:04.458Z,0.00
2023-06-15T02:58:04.462Z,0.00
2023-06-15T02:59:04.462Z,0.00
2023-06-15T03:00:04.426Z,0.00
2023-06-15T03:01:04.421Z,0.00
2023-06-15T03:02:04.451Z,0.00
2023-06-15T03:03:04.484Z,0.00
2023-06-15T03:04:04.379Z,0.00
2023-06-15T03:05:04.399Z,0.00
2023-06-15T03:06:04.381Z,0.00
2023-06-15T03:07:04.356Z,0.00
2023-06-15T03:08:04.341Z,0.00
2023-06-15T03:09:04.326Z,0.00
2023-06-15T03:10:04.314Z,0.00
2023-06-15T03:11:04.352Z,0.00
2023-06-15T03:12:04.300Z,0.00
2023-06-15T03:13:04.279Z,0.00
2023-06-15T03:14:04.279Z,0.00
2023-06-15T03:15:04.267Z,0.00
2023-06-15T03:16:04.241Z,0.00
2023-06-15T03:17:04.279Z,0.00
2023-06-15T03:18:04.296Z,0.00
2023-06-15T03:19:04.230Z,0.00
2023-06-15T03:20:04.210Z,0.00
2023-06-15T03:21:04.221Z,0.00
2023-06-15T03:22:04.184Z,0.00
2023-06-15T03:23:04.188Z,0.00
2023-06-15T03:24:04.177Z,0.00
2023-06-15T03:25:04.147Z,0.00
2023-06-15T03:26:04.142Z,0.00
2023-06-15T03:27:04.131Z,0.00
2023-06-15T03:28:04.108Z,0.00
2023-06-15T03:29:04.142Z,0.00
2023-06-15T03:30:04.085Z,0.00
2023-06-15T03:31:04.082Z,0.00
2023-06-15T03:32:04.083Z,0.00
2023-06-15T03:33:04.130Z,0.00
2023-06-15T03:34:04.058Z,0.00
2023-06-15T03:35:04.073Z,0.00
2023-06-15T03:36:04.033Z,0.00
2023-06-15T03:37:04.024Z,0.00
2023-06-15T03:38:04.000Z,0.00
2023-06-15T03:39:04.007Z,0.00
2023-06-15T03:40:03.976Z,0.00
2023-06-15T03:41:04.001Z,0.00
2023-06-15T03:42:03.970Z,0.00
2023-06-15T03:43:03.971Z,0.00
2023-06-15T03:44:03.948Z,0.00
2023-06-15T03:45:03.946Z,0.00
2023-06-15T03:46:03.953Z,0.00
2023-06-15T03:47:03.907Z,0.00
2023-06-15T03:48:03.976Z,0.00
2023-06-15T03:49:03.878Z,0.00
2023-06-15T03:50:03.869Z,0.00
2023-06-15T03:51:03.878Z,5.62
2023-06-15T03:52:03.864Z,5.62
2023-06-15T03:53:03.835Z,5.62
2023-06-15T03:54:03.840Z,5.62
2023-06-15T03:55:03.851Z,5.62
2023-06-15T03:56:03.816Z,5.62
2023-06-15T03:57:03.798Z,5.62
2023-06-15T03:58:03.825Z,5.62
2023-06-15T03:59:03.764Z,5.62
2023-06-15T04:00:03.775Z,5.62
2023-06-15T04:01:03.737Z,5.62
2023-06-15T04:02:03.735Z,5.62
2023-06-15T04:03:03.777Z,5.62
2023-06-15T04:04:03.817Z,5.62
2023-06-15T04:05:03.727Z,5.62
2023-06-15T04:06:03.684Z,5.62
2023-06-15T04:07:03.686Z,5.62
2023-06-15T04:08:03.658Z,5.62
2023-06-15T04:09:03.670Z,5.62
2023-06-15T04:10:03.649Z,5.62
2023-06-15T04:11:03.628Z,5.62
2023-06-15T04:12:03.620Z,5.62
2023-06-15T04:13:03.675Z,5.62
2023-06-15T04:14:03.596Z,5.62
2023-06-15T04:15:03.611Z,5.62
2023-06-15T04:16:03.585Z,5.62
2023-06-15T04:17:03.584Z,11.25
2023-06-15T04:18:03.612Z,11.25
2023-06-15T04:19:03.536Z,11.25
2023-06-15T04:20:03.539Z,11.25
2023-06-15T04:21:03.559Z,11.25
2023-06-15T04:22:03.500Z,11.25
2023-06-15T04:23:03.529Z,11.25
2023-06-15T04:24:03.520Z,11.25
2023-06-15T04:25:03.465Z,11.25
2023-06-15T04:26:03.459Z,11.25
2023-06-15T04:27:03.470Z,11.25
2023-06-15T04:28:03.438Z,11.25
2023-06-15T04:29:03.438Z,11.25
2023-06-15T04:30:03.422Z,16.88
2023-06-15T04:31:03.396Z,16.88
2023-06-15T04:32:03.390Z,16.88
2023-06-15T04:33:03.447Z,22.50
2023-06-15T04:34:03.375Z,22.50
2023-06-15T04:35:03.385Z,22.50
2023-06-15T04:36:03.345Z,22.50
2023-06-15T04:37:03.340Z,22.50
2023-06-15T04:38:03.327Z,22.50
2023-06-15T04:39:03.357Z,16.88
2023-06-15T04:40:03.307Z,16.88
2023-06-15T04:41:03.304Z,16.88
2023-06-15T04:42:03.283Z,22.50
2023-06-15T04:43:03.265Z,22.50
2023-06-15T04:44:03.269Z,22.50
2023-06-15T04:45:03.266Z,16.88
2023-06-15T04:46:03.249Z,16.88
2023-06-15T04:47:03.304Z,16.88
2023-06-15T04:48:03.285Z,22.50
2023-06-15T04:49:03.199Z,22.50
2023-06-15T04:50:03.203Z,22.50
2023-06-15T04:51:03.216Z,22.50
2023-06-15T04:52:03.169Z,22.50
2023-06-15T04:53:03.170Z,22.50
2023-06-15T04:54:03.162Z,22.50
2023-06-15T04:55:03.157Z,22.50
2023-06-15T04:56:03.136Z,22.50
2023-06-15T04:57:03.108Z,22.50
2023-06-15T04:58:03.142Z,22.50
2023-06-15T04:59:03.088Z,22.50
2023-06-15T05:00:03.076Z,22.50
2023-06-15T05:01:03.062Z,22.50
2023-06-15T05:02:03.117Z,22.50
2023-06-15T05:03:03.076Z,22.50
2023-06-15T05:04:03.066Z,28.12
2023-06-15T05:05:03.015Z,22.50
2023-06-15T05:06:03.023Z,22.50
2023-06-15T05:07:03.003Z,22.50
2023-06-15T05:08:02.982Z,22.50
2023-06-15T05:09:02.967Z,22.50
2023-06-15T05:10:02.973Z,22.50
2023-06-15T05:11:02.983Z,22.50
2023-06-15T05:12:02.940Z,22.50
2023-06-15T05:13:02.927Z,22.50
2023-06-15T05:14:02.919Z,22.50
2023-06-15T05:15:02.931Z,22.50
2023-06-15T05:16:02.924Z,22.50
2023-06-15T05:17:02.879Z,22.50
2023-06-15T05:18:02.915Z,22.50
2023-06-15T05:19:02.863Z,28.12
2023-06-15T05:20:02.853Z,28.12
2023-06-15T05:21:02.872Z,28.12
2023-06-15T05:22:02.863Z,28.12
2023-06-15T05:23:02.814Z,33.75
2023-06-15T05:24:02.863Z,33.75
2023-06-15T05:25:02.799Z,33.75
2023-06-15T05:26:03.474Z,33.75
2023-06-15T05:27:02.799Z,39.38
2023-06-15T05:28:02.783Z,39.38
2023-06-15T05:29:02.747Z,45.00
2023-06-15T05:30:02.739Z,45.00
2023-06-15T05:31:02.723Z,50.62
2023-06-15T05:32:02.742Z,50.62
2023-06-15T05:33:02.761Z,50.62
2023-06-15T05:34:02.703Z,50.62
2023-06-15T05:35:02.683Z,56.25
2023-06-15T05:36:11.918Z,56.25
2023-06-15T05:37:03.698Z,56.25
2023-06-15T05:38:02.655Z,56.25
2023-06-15T05:39:02.638Z,61.88
2023-06-15T05:40:02.636Z,61.88
2023-06-15T05:41:02.650Z,61.88
2023-06-15T05:42:02.655Z,61.88
2023-06-15T05:43:02.785Z,61.88
2023-06-15T05:44:02.581Z,61.88
2023-06-15T05:45:02.574Z,61.88
2023-06-15T05:46:02.563Z,67.50
2023-06-15T05:47:02.548Z,67.50
2023-06-15T05:48:02.549Z,67.50
2023-06-15T05:49:02.553Z,67.50
2023-06-15T05:50:02.517Z,67.50
2023-06-15T05:51:02.559Z,67.50
2023-06-15T05:52:02.504Z,67.50
2023-06-15T05:53:02.511Z,67.50
2023-06-15T05:54:02.491Z,67.50
2023-06-15T05:55:02.486Z,67.50
2023-06-15T05:57:02.435Z,73.12
2023-06-15T05:58:02.428Z,73.12
2023-06-15T05:59:02.427Z,73.12
2023-06-15T06:00:02.433Z,73.12
2023-06-15T06:01:02.415Z,73.12
2023-06-15T06:02:02.649Z,73.12
2023-06-15T06:03:02.454Z,73.12
2023-06-15T06:04:02.360Z,73.12
2023-06-15T06:05:02.344Z,73.12
2023-06-15T06:06:02.415Z,73.12
2023-06-15T06:07:02.351Z,78.75
2023-06-15T06:08:02.320Z,78.75
2023-06-15T06:09:02.307Z,78.75
2023-06-15T06:10:02.297Z,78.75
2023-06-15T06:11:02.292Z,78.75
2023-06-15T06:12:02.269Z,78.75
2023-06-15T06:13:02.279Z,78.75
2023-06-15T06:14:02.261Z,78.75
2023-06-15T06:15:02.274Z,84.38
2023-06-15T06:16:02.225Z,84.38
2023-06-15T06:17:02.214Z,84.38
2023-06-15T06:18:09.090Z,84.38
2023-06-15T06:19:03.214Z,84.38
2023-06-15T06:20:02.211Z,84.38
2023-06-15T06:21:02.176Z,84.38
2023-06-15T06:22:02.155Z,84.38
2023-06-15T06:23:02.162Z,84.38
2023-06-15T06:24:02.200Z,84.38
2023-06-15T06:25:02.144Z,90.00
2023-06-15T06:26:02.118Z,90.00
2023-06-15T06:27:02.100Z,90.00
2023-06-15T06:28:02.102Z,84.38
2023-06-15T06:29:02.082Z,90.00
2023-06-15T06:30:02.107Z,90.00
2023-06-15T06:31:02.095Z,112.50
2023-06-15T06:32:02.059Z,191.25
2023-06-15T06:33:02.327Z,241.88
2023-06-15T06:34:02.025Z,247.50
2023-06-15T06:35:02.009Z,241.88
2023-06-15T06:36:02.019Z,247.50
2023-06-15T06:37:02.009Z,247.50
2023-06-15T06:38:01.992Z,219.38
2023-06-15T06:39:03.239Z,180.00
2023-06-15T06:40:01.967Z,146.25
2023-06-15T06:41:01.949Z,140.62
2023-06-15T06:42:01.943Z,140.62
2023-06-15T06:43:01.957Z,140.62
2023-06-15T06:44:01.923Z,140.62
2023-06-15T06:45:01.915Z,140.62
2023-06-15T06:46:01.896Z,140.62
2023-06-15T06:47:01.953Z,135.00
2023-06-15T06:48:01.931Z,118.12
2023-06-15T06:49:01.885Z,112.50
2023-06-15T06:50:01.862Z,112.50
2023-06-15T06:51:01.836Z,112.50
2023-06-15T06:52:01.843Z,118.12
2023-06-15T06:53:01.815Z,118.12
2023-06-15T06:54:01.807Z,140.62
2023-06-15T06:55:01.808Z,185.62
2023-06-15T06:56:01.795Z,399.38
2023-06-15T06:57:01.819Z,630.00
2023-06-15T06:58:01.775Z,708.75
2023-06-15T06:59:01.749Z,675.00
2023-06-15T07:00:01.751Z,579.38
2023-06-15T07:01:01.743Z,416.25
2023-06-15T07:02:01.754Z,264.38
2023-06-15T07:03:01.803Z,191.25
2023-06-15T07:04:01.735Z,191.25
2023-06-15T07:05:01.693Z,185.62
2023-06-15T07:06:01.675Z,208.12
2023-06-15T07:07:01.654Z,236.25
2023-06-15T07:08:01.650Z,247.50
2023-06-15T07:09:01.678Z,421.88
2023-06-15T07:10:01.628Z,691.88
2023-06-15T07:11:01.614Z,860.62
2023-06-15T07:12:01.723Z,967.50
2023-06-15T07:13:01.601Z,1012.50
2023-06-15T07:14:01.592Z,1018.12
2023-06-15T07:15:01.729Z,1006.88
2023-06-15T07:16:01.563Z,973.12
2023-06-15T07:17:01.553Z,939.38
2023-06-15T07:18:01.583Z,1006.88
2023-06-15T07:19:01.562Z,1023.75
2023-06-15T07:20:01.544Z,973.12
2023-06-15T07:21:01.504Z,961.88
2023-06-15T07:22:01.521Z,596.25
2023-06-15T07:23:01.495Z,421.88
2023-06-15T07:24:01.509Z,157.50
2023-06-15T07:25:01.463Z,157.50
2023-06-15T07:26:01.470Z,146.25
2023-06-15T07:27:01.443Z,135.00
2023-06-15T07:28:01.434Z,129.38
2023-06-15T07:29:01.420Z,129.38
2023-06-15T07:30:01.415Z,123.75
2023-06-15T07:31:01.397Z,123.75
2023-06-15T07:32:01.451Z,123.75
2023-06-15T07:33:01.424Z,123.75
2023-06-15T07:34:01.369Z,922.50
2023-06-15T07:35:01.425Z,118.12
2023-06-15T07:36:01.346Z,118.12
2023-06-15T07:37:01.510Z,123.75
2023-06-15T07:38:01.344Z,123.75
2023-06-15T07:39:01.317Z,135.00
2023-06-15T07:40:01.301Z,135.00
2023-06-15T07:41:01.333Z,129.38
2023-06-15T07:42:01.284Z,129.38
2023-06-15T07:43:01.306Z,129.38
2023-06-15T07:44:01.264Z,123.75
2023-06-15T07:45:01.246Z,123.75
2023-06-15T07:46:01.245Z,146.25
2023-06-15T07:47:01.229Z,135.00
2023-06-15T07:48:01.288Z,135.00
2023-06-15T07:49:01.218Z,140.62
2023-06-15T07:50:01.209Z,135.00
2023-06-15T07:51:01.332Z,135.00
2023-06-15T07:52:09.526Z,146.25
2023-06-15T07:53:02.179Z,146.25
2023-06-15T07:54:01.183Z,151.88
2023-06-15T07:55:01.169Z,146.25
2023-06-15T07:56:01.143Z,151.88
2023-06-15T07:57:01.123Z,157.50
2023-06-15T07:58:01.119Z,140.62
2023-06-15T07:59:01.156Z,163.12
2023-06-15T08:00:01.126Z,163.12
2023-06-15T08:01:01.079Z,163.12
2023-06-15T08:02:01.067Z,168.75
2023-06-15T08:03:01.205Z,163.12
2023-06-15T08:04:01.077Z,157.50
2023-06-15T08:05:01.083Z,168.75
2023-06-15T08:06:01.030Z,168.75
2023-06-15T08:07:01.309Z,174.38
2023-06-15T08:08:01.004Z,168.75
2023-06-15T08:09:01.026Z,168.75
2023-06-15T08:10:00.994Z,168.75
2023-06-15T08:11:01.002Z,168.75
2023-06-15T08:12:00.980Z,168.75
2023-06-15T08:13:00.964Z,174.38
2023-06-15T08:14:00.949Z,174.38
2023-06-15T08:15:00.937Z,174.38
2023-06-15T08:16:00.970Z,174.38
2023-06-15T08:17:00.909Z,180.00
2023-06-15T08:18:00.926Z,180.00
2023-06-15T08:19:00.887Z,129.38
2023-06-15T08:20:00.881Z,135.00
2023-06-15T08:21:00.866Z,135.00
2023-06-15T08:22:00.876Z,135.00
2023-06-15T08:23:00.876Z,185.62
2023-06-15T08:24:00.903Z,191.25
2023-06-15T08:25:00.829Z,191.25
2023-06-15T08:26:00.818Z,196.88
2023-06-15T08:27:00.807Z,191.25
2023-06-15T08:28:00.851Z,191.25
2023-06-15T08:29:13.609Z,163.12
2023-06-15T08:30:01.778Z,163.12
2023-06-15T08:31:00.764Z,168.75
2023-06-15T08:32:00.749Z,163.12
2023-06-15T08:33:00.759Z,163.12
2023-06-15T08:34:00.740Z,157.50
2023-06-15T08:35:00.732Z,157.50
2023-06-15T08:36:00.702Z,163.12
2023-06-15T08:37:00.698Z,157.50
2023-06-15T08:38:00.692Z,157.50
2023-06-15T08:39:00.735Z,151.88
2023-06-15T08:40:00.660Z,151.88
2023-06-15T08:41:00.724Z,151.88
2023-06-15T08:42:00.641Z,146.25
2023-06-15T08:43:00.636Z,146.25
2023-06-15T08:44:00.623Z,146.25
2023-06-15T08:45:00.628Z,146.25
2023-06-15T08:46:00.596Z,146.25
2023-06-15T08:47:00.589Z,174.38
2023-06-15T08:48:00.589Z,174.38
2023-06-15T08:49:00.567Z,168.75
2023-06-15T08:50:00.555Z,174.38
2023-06-15T08:51:00.571Z,180.00
2023-06-15T08:52:00.532Z,174.38
2023-06-15T08:53:00.526Z,146.25
2023-06-15T08:54:00.514Z,151.88
2023-06-15T08:55:00.535Z,151.88
2023-06-15T08:56:00.497Z,151.88
2023-06-15T08:57:00.533Z,151.88
2023-06-15T08:58:00.465Z,157.50
2023-06-15T08:59:00.468Z,157.50
2023-06-15T09:00:00.450Z,157.50
2023-06-15T09:01:00.449Z,157.50
2023-06-15T09:02:00.438Z,157.50
2023-06-15T09:03:00.493Z,163.12
2023-06-15T09:04:00.446Z,168.75
2023-06-15T09:05:00.408Z,168.75
2023-06-15T09:06:00.381Z,174.38
2023-06-15T09:07:00.396Z,1541.25
2023-06-15T09:08:00.358Z,219.38
2023-06-15T09:09:00.364Z,174.38
2023-06-15T09:10:00.340Z,180.00
2023-06-15T09:11:00.357Z,168.75
2023-06-15T09:12:00.323Z,174.38
2023-06-15T09:13:00.315Z,174.38
2023-06-15T09:14:00.334Z,174.38
2023-06-15T09:15:00.289Z,174.38
2023-06-15T09:16:00.283Z,174.38
2023-06-15T09:17:00.271Z,174.38
2023-06-15T09:18:00.327Z,174.38
2023-06-15T09:19:00.262Z,174.38
2023-06-15T09:20:00.235Z,196.88
2023-06-15T09:21:00.223Z,174.38
2023-06-15T09:22:00.212Z,174.38
2023-06-15T09:23:00.274Z,174.38
2023-06-15T09:24:00.305Z,174.38
2023-06-15T09:25:00.206Z,174.38
2023-06-15T09:26:00.169Z,174.38
2023-06-15T09:27:00.183Z,180.00
2023-06-15T09:28:00.181Z,185.62
2023-06-15T09:29:00.164Z,180.00
2023-06-15T09:30:00.169Z,185.62
2023-06-15T09:31:00.132Z,185.62
2023-06-15T09:32:00.126Z,185.62
2023-06-15T09:33:00.132Z,196.88
2023-06-15T09:34:00.139Z,219.38
2023-06-15T09:35:00.079Z,230.62
2023-06-15T09:36:00.125Z,247.50
2023-06-15T09:37:00.054Z,315.00
2023-06-15T09:38:00.042Z,247.50
2023-06-15T09:39:00.036Z,405.00
2023-06-15T09:40:00.018Z,168.75
2023-06-15T09:41:00.012Z,1091.25
2023-06-15T09:42:00.411Z,1102.50
2023-06-15T09:43:00.026Z,1507.50
2023-06-15T09:43:59.976Z,298.12
2023-06-15T09:44:59.969Z,1687.50
2023-06-15T09:45:59.952Z,315.00
2023-06-15T09:47:00.889Z,163.12
2023-06-15T09:47:59.994Z,106.88
2023-06-15T09:48:59.939Z,78.75
2023-06-15T09:49:59.916Z,67.50
2023-06-15T09:50:59.910Z,61.88
2023-06-15T09:51:59.893Z,61.88
2023-06-15T09:52:59.884Z,56.25
2023-06-15T09:53:59.895Z,50.62
2023-06-15T09:54:59.866Z,50.62
2023-06-15T09:55:59.857Z,56.25
2023-06-15T09:56:59.842Z,45.00
2023-06-15T09:57:59.836Z,39.38
2023-06-15T09:58:59.924Z,39.38
2023-06-15T09:59:59.807Z,39.38
2023-06-15T10:00:59.798Z,39.38
2023-06-15T10:01:59.797Z,39.38
2023-06-15T10:02:59.845Z,45.00
2023-06-15T10:03:59.785Z,56.25
2023-06-15T10:04:59.775Z,73.12
2023-06-15T10:05:59.747Z,140.62
2023-06-15T10:06:59.736Z,112.50
2023-06-15T10:07:59.718Z,765.00
2023-06-15T10:08:59.713Z,1648.12
2023-06-15T10:09:59.698Z,1884.38
2023-06-15T10:10:59.710Z,157.50
2023-06-15T10:11:59.680Z,78.75
2023-06-15T10:12:59.668Z,67.50
2023-06-15T10:13:59.655Z,61.88
2023-06-15T10:14:59.686Z,61.88
2023-06-15T10:15:59.633Z,61.88
2023-06-15T10:16:59.661Z,61.88
2023-06-15T10:17:59.629Z,73.12
2023-06-15T10:18:59.604Z,123.75
2023-06-15T10:19:59.589Z,1895.62
2023-06-15T10:20:59.590Z,2002.50
2023-06-15T10:21:59.570Z,1940.62
2023-06-15T10:22:59.626Z,1884.38
2023-06-15T10:23:59.582Z,1288.12
2023-06-15T10:24:59.542Z,1963.12
2023-06-15T10:25:59.529Z,1878.75
2023-06-15T10:26:59.522Z,1901.25
2023-06-15T10:27:59.505Z,1400.62
2023-06-15T10:28:59.522Z,1372.50
2023-06-15T10:29:59.483Z,185.62
2023-06-15T10:30:59.575Z,511.88
2023-06-15T10:31:59.466Z,208.12
2023-06-15T10:32:59.474Z,191.25
2023-06-15T10:33:59.450Z,146.25
2023-06-15T10:34:59.473Z,371.25
2023-06-15T10:35:59.424Z,1704.38
2023-06-15T10:36:59.424Z,1856.25
2023-06-15T10:37:59.401Z,1940.62
2023-06-15T10:38:59.394Z,2070.00
2023-06-15T10:39:59.381Z,2098.12
2023-06-15T10:40:59.409Z,1912.50
2023-06-15T10:41:59.363Z,1878.75
2023-06-15T10:42:59.354Z,2058.75
2023-06-15T10:43:59.340Z,1974.38
2023-06-15T10:44:59.333Z,523.12
2023-06-15T10:45:59.334Z,1035.00
2023-06-15T10:46:59.340Z,1040.62
2023-06-15T10:47:59.323Z,146.25
2023-06-15T10:48:59.292Z,185.62
2023-06-15T10:50:00.764Z,427.50
2023-06-15T10:50:59.289Z,151.88
2023-06-15T10:51:59.276Z,146.25
2023-06-15T10:52:59.254Z,123.75
2023-06-15T10:53:59.237Z,135.00
2023-06-15T10:54:59.238Z,129.38
2023-06-15T10:55:59.264Z,219.38
2023-06-15T10:56:59.206Z,832.50
2023-06-15T10:57:59.199Z,1811.25
2023-06-15T10:58:59.194Z,1833.75
2023-06-15T10:59:59.258Z,1760.62
2023-06-15T11:00:59.203Z,1704.38
2023-06-15T11:01:59.151Z,1350.00
2023-06-15T11:02:59.193Z,871.88
2023-06-15T11:03:59.183Z,450.00
2023-06-15T11:04:59.163Z,298.12
2023-06-15T11:05:59.112Z,438.75
2023-06-15T11:07:01.505Z,770.62
2023-06-15T11:07:59.091Z,956.25
2023-06-15T11:08:59.081Z,691.88
2023-06-15T11:09:59.069Z,500.62
2023-06-15T11:10:59.074Z,382.50
2023-06-15T11:11:59.051Z,371.25
2023-06-15T11:12:59.054Z,348.75
2023-06-15T11:13:59.032Z,298.12
2023-06-15T11:14:59.022Z,303.75
2023-06-15T11:15:59.008Z,320.62
2023-06-15T11:16:59.018Z,225.00
2023-06-15T11:17:59.080Z,123.75
2023-06-15T11:18:59.009Z,106.88
2023-06-15T11:19:58.964Z,90.00
2023-06-15T11:20:58.962Z,78.75
2023-06-15T11:21:58.961Z,78.75
2023-06-15T11:22:58.935Z,73.12
2023-06-15T11:23:59.061Z,67.50
2023-06-15T11:24:58.921Z,56.25
2023-06-15T11:25:58.910Z,56.25
2023-06-15T11:26:58.916Z,56.25
2023-06-15T11:27:58.907Z,56.25
2023-06-15T11:28:58.877Z,61.88
2023-06-15T11:29:58.860Z,67.50
2023-06-15T11:30:58.860Z,78.75
2023-06-15T11:31:58.847Z,84.38
2023-06-15T11:32:58.891Z,90.00
2023-06-15T11:33:58.821Z,101.25
2023-06-15T11:34:58.831Z,101.25
2023-06-15T11:36:01.510Z,101.25
2023-06-15T11:36:58.811Z,101.25
2023-06-15T11:37:58.774Z,146.25
2023-06-15T11:38:58.770Z,135.00
2023-06-15T11:39:58.757Z,129.38
2023-06-15T11:40:58.746Z,129.38
2023-06-15T11:41:58.780Z,129.38
2023-06-15T11:42:58.729Z,129.38
2023-06-15T11:43:58.720Z,129.38
2023-06-15T11:44:58.710Z,129.38
2023-06-15T11:45:58.713Z,123.75
2023-06-15T11:46:58.685Z,129.38
2023-06-15T11:47:58.748Z,129.38
2023-06-15T11:48:58.778Z,135.00
2023-06-15T11:49:58.646Z,129.38
2023-06-15T11:50:58.667Z,129.38
2023-06-15T11:51:58.640Z,129.38
2023-06-15T11:52:58.616Z,129.38
2023-06-15T11:53:58.661Z,135.00
2023-06-15T11:54:59.397Z,129.38
2023-06-15T11:55:58.583Z,129.38
2023-06-15T11:56:58.581Z,123.75
2023-06-15T11:57:58.561Z,129.38
2023-06-15T11:58:58.583Z,129.38
2023-06-15T11:59:58.538Z,129.38
2023-06-15T12:00:58.548Z,135.00
2023-06-15T12:01:58.526Z,140.62
2023-06-15T12:02:58.529Z,146.25
2023-06-15T12:04:05.968Z,157.50
2023-06-15T12:04:59.562Z,163.12
2023-06-15T12:05:58.517Z,168.75
2023-06-15T12:06:58.560Z,163.12
2023-06-15T12:07:58.457Z,163.12
2023-06-15T12:08:58.509Z,112.50
2023-06-15T12:09:58.492Z,129.38
2023-06-15T12:10:58.423Z,106.88
2023-06-15T12:11:58.431Z,146.25
2023-06-15T12:12:58.403Z,140.62
2023-06-15T12:13:58.395Z,140.62
2023-06-15T12:14:58.385Z,135.00
2023-06-15T12:15:58.510Z,101.25
2023-06-15T12:16:58.359Z,95.62
2023-06-15T12:17:58.398Z,101.25
2023-06-15T12:18:58.334Z,112.50
2023-06-15T12:19:58.329Z,151.88
2023-06-15T12:20:58.338Z,151.88
2023-06-15T12:21:58.305Z,146.25
2023-06-15T12:22:58.318Z,123.75
2023-06-15T12:23:58.291Z,118.12
2023-06-15T12:24:58.272Z,129.38
2023-06-15T12:25:58.288Z,84.38
2023-06-15T12:26:58.261Z,78.75
2023-06-15T12:27:58.242Z,95.62
2023-06-15T12:28:58.236Z,101.25
2023-06-15T12:29:58.219Z,123.75
2023-06-15T12:30:58.205Z,118.12
2023-06-15T12:31:58.225Z,118.12
2023-06-15T12:32:58.232Z,123.75
2023-06-15T12:33:58.263Z,129.38
2023-06-15T12:34:58.162Z,129.38
2023-06-15T12:35:58.156Z,135.00
2023-06-15T12:36:58.148Z,135.00
2023-06-15T12:37:58.225Z,135.00
2023-06-15T12:38:58.164Z,118.12
2023-06-15T12:39:58.111Z,129.38
2023-06-15T12:40:58.134Z,90.00
2023-06-15T12:41:58.089Z,84.38
2023-06-15T12:42:58.077Z,84.38
2023-06-15T12:43:58.067Z,123.75
2023-06-15T12:44:58.058Z,118.12
2023-06-15T12:45:58.166Z,112.50
2023-06-15T12:46:58.043Z,106.88
2023-06-15T12:47:58.103Z,140.62
2023-06-15T12:48:58.017Z,106.88